createdAt,value
2022-08-27T00:01:49.211Z,30.20
2022-08-27T00:06:51.008Z,24.38
2022-08-27T00:11:52.960Z,20.80
2022-08-27T00:16:55.788Z,23.42
2022-08-27T00:21:57.298Z,22.90
2022-08-27T00:26:58.736Z,22.02
2022-08-27T00:32:00.417Z,19.80
2022-08-27T00:37:03.552Z,25.38
2022-08-27T00:42:06.605Z,25.13
2022-08-27T00:47:13.964Z,22.08
2022-08-27T00:52:19.491Z,27.95
2022-08-27T00:57:21.089Z,21.40
2022-08-27T01:02:26.100Z,22.77
2022-08-27T01:07:31.658Z,23.95
2022-08-27T01:12:34.669Z,25.90
2022-08-27T01:17:38.992Z,22.20
2022-08-27T01:23:09.985Z,30.98
2022-08-27T01:28:12.401Z,29.48
2022-08-27T01:33:17.268Z,28.42
2022-08-27T01:38:30.932Z,33.60
2022-08-27T01:43:32.798Z,28.60
2022-08-27T01:48:34.724Z,29.33
2022-08-27T01:53:36.735Z,33.58
2022-08-27T01:58:39.418Z,33.97
2022-08-27T02:03:41.228Z,30.23
2022-08-27T02:08:43.053Z,29.83
2022-08-27T02:13:44.553Z,33.42
2022-08-27T02:18:46.619Z,31.90
2022-08-27T02:23:48.243Z,30.67
2022-08-27T02:28:49.799Z,25.13
2022-08-27T02:33:52.264Z,24.70
2022-08-27T02:38:54.427Z,32.58
2022-08-27T02:43:55.854Z,31.08
2022-08-27T02:48:57.744Z,25.67
2022-08-27T02:54:00.537Z,29.02
2022-08-27T02:59:03.640Z,28.00
2022-08-27T03:04:05.061Z,29.35
2022-08-27T03:09:09.888Z,31.80
2022-08-27T03:14:12.774Z,29.38
2022-08-27T03:19:18.659Z,54.47
2022-08-27T03:24:25.348Z,39.60
2022-08-27T03:29:28.336Z,57.83
2022-08-27T03:34:30.131Z,36.90
2022-08-27T03:39:31.782Z,31.45
2022-08-27T03:44:33.304Z,31.02
2022-08-27T03:49:34.808Z,33.33
2022-08-27T03:54:38.082Z,29.88
2022-08-27T03:59:39.511Z,33.38
2022-08-27T04:04:40.968Z,28.35
2022-08-27T04:09:42.513Z,23.92
2022-08-27T04:14:43.980Z,26.60
2022-08-27T04:19:45.419Z,29.60
2022-08-27T04:24:47.325Z,29.58
2022-08-27T04:29:48.827Z,30.90
2022-08-27T04:34:57.213Z,27.17
2022-08-27T04:39:59.312Z,31.85
2022-08-27T04:45:00.842Z,26.25
2022-08-27T04:50:05.649Z,34.95
2022-08-27T04:55:07.943Z,28.38
2022-08-27T05:00:09.769Z,29.23
2022-08-27T05:05:15.525Z,30.70
2022-08-27T05:10:17.555Z,27.83
2022-08-27T05:15:19.035Z,27.65
2022-08-27T05:20:20.694Z,26.48
2022-08-27T05:25:24.046Z,22.27
2022-08-27T05:30:25.565Z,27.77
2022-08-27T05:35:27.018Z,30.50
2022-08-27T05:40:28.528Z,28.30
2022-08-27T05:45:30.051Z,28.05
2022-08-27T05:50:31.499Z,32.67
2022-08-27T05:55:45.035Z,24.73
2022-08-27T06:01:09.408Z,24.65
2022-08-27T06:06:11.808Z,23.23
2022-08-27T06:11:13.532Z,28.75
2022-08-27T06:16:18.015Z,28.50
2022-08-27T06:21:24.275Z,25.80
2022-08-27T06:26:26.974Z,28.02
2022-08-27T06:31:28.795Z,29.52
2022-08-27T06:36:31.218Z,32.47
2022-08-27T06:41:33.022Z,30.80
2022-08-27T06:46:34.511Z,27.88
2022-08-27T06:51:38.259Z,28.27
2022-08-27T06:56:40.828Z,31.27
2022-08-27T07:01:45.953Z,28.55
2022-08-27T07:06:47.903Z,35.28
2022-08-27T07:11:49.348Z,37.90
2022-08-27T07:16:52.110Z,26.83
2022-08-27T07:21:54.571Z,32.78
2022-08-27T07:26:56.131Z,36.58
2022-08-27T07:31:57.638Z,32.95
2022-08-27T07:36:59.192Z,33.10
2022-08-27T07:42:32.902Z,29.42
2022-08-27T07:47:35.431Z,30.33
2022-08-27T07:52:36.888Z,25.15
2022-08-27T07:57:39.127Z,31.15
2022-08-27T08:02:42.187Z,32.47
2022-08-27T08:07:43.946Z,29.63
2022-08-27T08:12:45.520Z,30.73
2022-08-27T08:17:47.013Z,26.98
2022-08-27T08:22:48.841Z,26.83
2022-08-27T08:27:50.291Z,25.40
2022-08-27T08:32:51.754Z,19.15
2022-08-27T08:37:53.244Z,22.88
2022-08-27T08:42:56.649Z,25.45
2022-08-27T08:48:19.594Z,24.95
2022-08-27T08:53:41.008Z,25.83
2022-08-27T08:58:51.402Z,22.25
2022-08-27T09:09:01.631Z,23.73
2022-08-27T09:14:13.362Z,22.73
2022-08-27T09:19:14.989Z,26.35
2022-08-27T09:24:34.105Z,20.75
2022-08-27T09:29:37.545Z,24.85
2022-08-27T09:34:42.318Z,24.70
2022-08-27T09:40:13.233Z,31.15
2022-08-27T09:45:20.644Z,25.95
2022-08-27T09:50:31.561Z,24.58
2022-08-27T09:55:45.423Z,27.30
2022-08-27T10:00:48.489Z,25.25
2022-08-27T10:05:51.765Z,32.55
2022-08-27T10:10:58.119Z,26.25
2022-08-27T10:16:24.025Z,22.17
2022-08-27T10:21:32.679Z,28.48
2022-08-27T10:26:43.737Z,25.17
2022-08-27T10:37:26.516Z,25.00
2022-08-27T10:42:57.650Z,26.55
2022-08-27T10:48:14.470Z,26.33
2022-08-27T10:53:39.241Z,28.83
2022-08-27T10:58:58.868Z,24.42
2022-08-27T11:04:10.487Z,27.40
2022-08-27T11:09:20.402Z,30.02
2022-08-27T11:14:34.552Z,25.05
2022-08-27T11:19:51.677Z,22.70
2022-08-27T11:25:10.648Z,25.77
2022-08-27T11:30:45.446Z,25.85
2022-08-27T11:36:25.494Z,29.58
2022-08-27T11:42:01.154Z,31.80
2022-08-27T11:47:13.911Z,28.05
2022-08-27T11:52:32.914Z,28.77
2022-08-27T11:57:36.790Z,24.35
2022-08-27T12:02:38.252Z,23.63
2022-08-27T12:07:50.636Z,26.23
2022-08-27T12:13:17.382Z,24.40
2022-08-27T12:18:37.089Z,25.20
2022-08-27T12:24:03.468Z,31.60
2022-08-27T12:29:31.521Z,29.17
2022-08-27T12:34:43.785Z,22.42
2022-08-27T12:39:49.327Z,21.58
2022-08-27T12:44:59.711Z,20.73
2022-08-27T12:55:17.410Z,22.50
2022-08-27T13:00:22.775Z,24.70
2022-08-27T13:05:37.731Z,24.20
2022-08-27T13:10:39.195Z,25.42
2022-08-27T13:15:47.433Z,25.85
2022-08-27T13:20:53.213Z,26.08
2022-08-27T13:26:04.281Z,20.38
2022-08-27T13:31:07.453Z,23.25
2022-08-27T13:36:12.358Z,22.30
2022-08-27T13:41:33.280Z,24.75
2022-08-27T13:46:45.315Z,28.10
2022-08-27T13:51:47.716Z,30.05
2022-08-27T13:56:49.128Z,26.70
2022-08-27T14:02:11.519Z,25.00
2022-08-27T14:07:18.735Z,25.85
2022-08-27T14:12:38.171Z,24.90
2022-08-27T14:17:39.638Z,25.90
2022-08-27T14:22:42.006Z,25.60
2022-08-27T14:27:54.039Z,19.48
2022-08-27T14:32:58.482Z,21.73
2022-08-27T14:38:08.415Z,19.48
2022-08-27T14:43:09.987Z,23.75
2022-08-27T14:48:21.168Z,20.88
2022-08-27T14:53:29.169Z,21.58
2022-08-27T14:58:30.621Z,18.60
2022-08-27T15:03:37.298Z,20.05
2022-08-27T15:08:39.051Z,22.38
2022-08-27T15:13:43.830Z,22.35
2022-08-27T15:18:56.867Z,18.73
2022-08-27T15:24:16.872Z,17.63
2022-08-27T15:29:18.934Z,16.70
2022-08-27T15:34:20.392Z,22.00
2022-08-27T15:39:21.835Z,15.98
2022-08-27T15:44:23.310Z,16.15
2022-08-27T15:49:24.747Z,18.27
2022-08-27T15:54:26.462Z,17.77
2022-08-27T15:59:28.232Z,18.35
2022-08-27T16:04:29.882Z,16.10
2022-08-27T16:09:31.285Z,16.30
2022-08-27T16:14:32.718Z,16.88
2022-08-27T16:19:34.836Z,19.20
2022-08-27T16:24:36.290Z,17.95
2022-08-27T16:29:37.900Z,16.80
2022-08-27T16:34:41.127Z,18.50
2022-08-27T16:39:42.542Z,17.27
2022-08-27T16:44:44.213Z,15.27
2022-08-27T16:50:04.370Z,18.23
2022-08-27T17:00:08.456Z,21.30
2022-08-27T17:05:33.528Z,16.67
2022-08-27T17:10:35.892Z,21.08
2022-08-27T17:15:37.685Z,19.83
2022-08-27T17:20:39.225Z,21.10
2022-08-27T17:25:40.671Z,17.88
2022-08-27T17:30:42.253Z,17.35
2022-08-27T17:35:44.123Z,17.30
2022-08-27T17:40:46.358Z,16.95
2022-08-27T17:45:53.625Z,17.02
2022-08-27T17:50:55.320Z,18.33
2022-08-27T17:55:56.839Z,17.65
2022-08-27T18:00:58.897Z,18.05
2022-08-27T18:06:00.416Z,20.77
2022-08-27T18:11:01.942Z,20.98
2022-08-27T18:16:06.837Z,19.48
2022-08-27T18:21:08.464Z,22.60
2022-08-27T18:26:15.917Z,22.45
2022-08-27T18:31:20.374Z,22.38
2022-08-27T18:36:21.938Z,22.60
2022-08-27T18:41:25.411Z,20.85
2022-08-27T18:46:27.539Z,20.23
2022-08-27T18:51:31.160Z,19.85
2022-08-27T18:56:37.145Z,19.92
2022-08-27T19:01:39.453Z,22.95
2022-08-27T19:06:40.989Z,21.02
2022-08-27T19:11:42.719Z,21.10
2022-08-27T19:16:48.062Z,25.17
2022-08-27T19:21:51.736Z,31.23
2022-08-27T19:26:53.851Z,25.05
2022-08-27T19:31:55.375Z,23.83
2022-08-27T19:36:59.419Z,22.02
2022-08-27T19:42:00.851Z,18.67
2022-08-27T19:47:02.991Z,24.02
2022-08-27T19:52:08.334Z,23.90
2022-08-27T19:57:10.105Z,19.27
2022-08-27T20:02:12.501Z,20.25
2022-08-27T20:07:13.967Z,29.52
2022-08-27T20:12:15.407Z,22.33
2022-08-27T20:17:17.929Z,22.80
2022-08-27T20:22:20.226Z,19.25
2022-08-27T20:27:21.690Z,26.70
2022-08-27T20:32:29.268Z,19.58
2022-08-27T20:37:31.440Z,21.13
2022-08-27T20:42:33.563Z,21.98
2022-08-27T20:47:35.494Z,19.05
2022-08-27T20:52:36.972Z,18.90
2022-08-27T20:58:02.011Z,18.63
2022-08-27T21:03:07.499Z,21.25
2022-08-27T21:08:09.410Z,16.65
2022-08-27T21:13:12.549Z,22.33
2022-08-27T21:18:15.378Z,25.48
2022-08-27T21:23:16.832Z,21.30
2022-08-27T21:28:18.251Z,24.20
2022-08-27T21:33:19.743Z,22.45
2022-08-27T21:38:21.219Z,25.98
2022-08-27T21:43:22.981Z,31.13
2022-08-27T21:48:25.209Z,24.33
2022-08-27T21:53:26.691Z,22.60
2022-08-27T21:58:28.611Z,21.70
2022-08-27T22:03:30.382Z,32.20
2022-08-27T22:08:31.852Z,16.85
2022-08-27T22:13:33.351Z,18.75
2022-08-27T22:18:34.872Z,22.92
2022-08-27T22:23:36.343Z,19.80
2022-08-27T22:28:37.799Z,20.55
2022-08-27T22:33:39.590Z,21.70
2022-08-27T22:38:41.235Z,25.65
2022-08-27T22:43:42.865Z,23.77
2022-08-27T22:48:44.279Z,21.85
2022-08-27T22:53:46.220Z,22.45
2022-08-27T22:58:47.652Z,18.08
2022-08-27T23:03:49.403Z,20.25
2022-08-27T23:08:50.914Z,20.00
2022-08-27T23:13:52.971Z,19.95
2022-08-27T23:18:54.679Z,17.60
2022-08-27T23:23:56.163Z,15.50
2022-08-27T23:28:58.454Z,19.77
2022-08-27T23:33:59.952Z,19.25
2022-08-27T23:39:01.440Z,19.10
2022-08-27T23:44:04.251Z,21.67
2022-08-27T23:49:05.819Z,19.75
2022-08-27T23:54:07.434Z,22.10
2022-08-27T23:59:08.880Z,18.40
